Time;durP1;ratioP1;P1;durP2;ratioP2;P2;SDS_P1;SDS_P2;PMS_P1;PMS_P2;Temp;Humidity;BMP_temperature;BMP_pressure;BME280_temperature;BME280_humidity;BME280_pressure;Samples;Min_cycle;Max_cycle;Signal;HPM_P1;HPM_P2
2023/02/19 00:01:39;;;;;;;4.50;3.30;;;16.70;65.20;;;;;;5069142;28;20454;-82
2023/02/19 00:04:08;;;;;;;5.50;2.77;;;16.70;64.90;;;;;;5065941;28;20550;-80
2023/02/19 00:06:36;;;;;;;6.10;2.90;;;16.70;64.80;;;;;;5073117;28;20448;-78
2023/02/19 00:09:04;;;;;;;3.40;2.40;;;16.80;64.80;;;;;;5066133;28;20485;-80
2023/02/19 00:11:33;;;;;;;3.40;2.30;;;16.90;64.70;;;;;;5068040;28;20470;-79
2023/02/19 00:14:02;;;;;;;3.10;2.80;;;16.90;64.70;;;;;;5075673;28;20488;-81
2023/02/19 00:16:33;;;;;;;3.93;2.87;;;16.90;64.60;;;;;;5074237;28;20478;-80
2023/02/19 00:19:05;;;;;;;2.73;2.00;;;16.90;64.60;;;;;;5071795;28;20456;-81
2023/02/19 00:21:35;;;;;;;2.20;1.97;;;16.90;64.50;;;;;;5073983;28;20482;-81
2023/02/19 00:24:05;;;;;;;3.17;2.20;;;17.00;64.60;;;;;;5071831;28;20477;-82
2023/02/19 00:26:33;;;;;;;2.23;2.03;;;17.00;64.60;;;;;;5078215;28;20474;-83
2023/02/19 00:29:01;;;;;;;4.90;2.20;;;17.00;64.60;;;;;;5068191;28;20457;-79
2023/02/19 00:31:31;;;;;;;2.60;2.00;;;17.00;64.50;;;;;;5074862;28;20456;-80
2023/02/19 00:34:02;;;;;;;5.80;2.50;;;17.00;64.60;;;;;;5073157;28;20461;-80
2023/02/19 00:36:30;;;;;;;1.87;1.77;;;17.00;64.50;;;;;;5071665;28;20508;-80
2023/02/19 00:38:58;;;;;;;2.37;1.97;;;17.10;64.60;;;;;;5072065;28;20461;-79
2023/02/19 00:41:26;;;;;;;2.00;1.90;;;17.00;64.60;;;;;;5074320;28;20469;-78
2023/02/19 00:43:55;;;;;;;5.40;1.80;;;17.00;64.40;;;;;;5066811;28;20475;-78
2023/02/19 00:46:24;;;;;;;2.20;2.00;;;17.00;64.50;;;;;;5070754;28;20445;-78
2023/02/19 00:48:54;;;;;;;4.87;2.10;;;17.10;64.70;;;;;;5070285;28;20454;-79
2023/02/19 00:51:23;;;;;;;1.97;1.67;;;17.10;64.50;;;;;;5072426;28;20961;-78
2023/02/19 00:53:50;;;;;;;1.70;1.60;;;17.00;64.40;;;;;;5074016;28;20500;-79
2023/02/19 00:56:18;;;;;;;2.13;2.00;;;17.10;64.60;;;;;;5073981;28;20469;-80
2023/02/19 00:58:47;;;;;;;2.40;1.90;;;17.00;64.60;;;;;;5068391;28;20504;-78
2023/02/19 01:01:15;;;;;;;3.73;1.90;;;17.00;64.40;;;;;;5068174;28;20524;-79
2023/02/19 01:03:43;;;;;;;2.63;1.90;;;17.10;64.70;;;;;;5072419;28;20556;-79
2023/02/19 01:06:14;;;;;;;2.00;1.60;;;17.10;64.60;;;;;;5069057;28;20456;-80
2023/02/19 01:08:42;;;;;;;4.93;1.87;;;17.10;64.70;;;;;;5074443;28;20537;-79
2023/02/19 01:11:10;;;;;;;1.67;1.57;;;17.10;64.80;;;;;;5075263;28;20519;-78
2023/02/19 01:13:40;;;;;;;1.97;1.77;;;17.10;64.70;;;;;;5076126;28;20516;-79
2023/02/19 01:16:10;;;;;;;1.77;1.40;;;17.10;64.60;;;;;;5070790;28;20475;-79
2023/02/19 01:18:39;;;;;;;3.40;1.83;;;17.10;64.80;;;;;;5072611;28;20453;-79
2023/02/19 01:21:07;;;;;;;1.60;1.50;;;17.10;64.80;;;;;;5071073;28;20983;-79
2023/02/19 01:23:37;;;;;;;1.40;1.30;;;17.10;64.70;;;;;;5072493;28;20498;-79
2023/02/19 01:26:06;;;;;;;1.53;1.40;;;17.10;64.70;;;;;;5071235;28;20513;-80
2023/02/19 01:28:34;;;;;;;2.53;1.90;;;17.10;64.90;;;;;;5075287;28;20461;-78
2023/02/19 01:31:02;;;;;;;4.07;1.73;;;17.10;64.90;;;;;;5072702;28;20456;-79
2023/02/19 01:33:31;;;;;;;1.60;1.33;;;17.10;64.80;;;;;;5073960;28;20490;-79
2023/02/19 01:35:59;;;;;;;1.60;1.50;;;17.00;64.80;;;;;;5074978;28;20456;-80
2023/02/19 01:38:27;;;;;;;1.60;1.50;;;17.00;64.80;;;;;;5079341;28;20453;-81
2023/02/19 01:40:57;;;;;;;4.17;2.00;;;17.10;64.80;;;;;;5081354;28;20538;-82
2023/02/19 01:43:25;;;;;;;1.50;1.40;;;17.10;64.80;;;;;;5079783;28;20473;-80
2023/02/19 01:45:53;;;;;;;1.73;1.63;;;17.10;64.90;;;;;;5078213;28;20444;-80
2023/02/19 01:48:22;;;;;;;1.20;1.20;;;17.10;64.80;;;;;;5068866;28;20453;-78
2023/02/19 01:50:52;;;;;;;1.53;1.43;;;17.10;64.90;;;;;;5075093;28;20453;-79
2023/02/19 01:53:22;;;;;;;1.40;1.30;;;17.10;64.90;;;;;;5075644;28;20608;-80
2023/02/19 01:55:52;;;;;;;1.60;1.50;;;17.10;64.90;;;;;;5073614;28;20473;-80
2023/02/19 01:58:21;;;;;;;4.77;1.43;;;17.10;64.90;;;;;;5078194;28;20556;-82
2023/02/19 02:00:51;;;;;;;1.50;1.50;;;17.10;64.90;;;;;;5078316;28;20464;-81
2023/02/19 02:03:19;;;;;;;2.30;1.60;;;17.10;64.90;;;;;;5080910;28;20495;-80
2023/02/19 02:05:54;;;;;;;2.53;1.80;;;17.00;65.00;;;;;;5080907;28;20464;-81
2023/02/19 02:11:07;;;;;;;2.53;1.37;;;17.00;64.90;;;;;;5076453;28;20472;-80
2023/02/19 02:13:37;;;;;;;3.83;1.67;;;17.00;64.90;;;;;;5084250;28;20500;-79
2023/02/19 02:16:17;;;;;;;2.60;1.43;;;17.00;65.20;;;;;;5078535;28;20451;-81
2023/02/19 02:18:54;;;;;;;1.93;1.50;;;17.00;64.90;;;;;;5083796;28;20447;-81
2023/02/19 02:21:54;;;;;;;1.60;1.50;;;17.00;65.20;;;;;;5086447;28;20449;-82
2023/02/19 02:24:46;;;;;;;1.20;1.10;;;17.00;65.00;;;;;;5087180;28;20478;-82
2023/02/19 02:27:24;;;;;;;1.67;1.57;;;17.00;65.00;;;;;;5037611;28;20461;-82
2023/02/19 02:30:15;;;;;;;1.43;1.30;;;17.00;65.20;;;;;;5072408;28;20457;-82
2023/02/19 02:32:52;;;;;;;2.50;1.80;;;17.00;65.00;;;;;;5072000;28;20497;-80
2023/02/19 02:35:21;;;;;;;2.50;1.60;;;17.00;65.10;;;;;;5078990;28;20541;-82
2023/02/19 02:37:49;;;;;;;2.10;1.60;;;17.00;65.20;;;;;;5074977;28;20469;-83
2023/02/19 02:40:18;;;;;;;1.53;1.47;;;17.00;65.30;;;;;;5070965;28;20454;-81
2023/02/19 02:42:46;;;;;;;2.80;1.70;;;17.00;65.40;;;;;;5068392;28;20481;-81
2023/02/19 02:45:35;;;;;;;1.23;1.20;;;17.00;65.40;;;;;;5072798;28;20457;-82
2023/02/19 02:48:08;;;;;;;1.50;1.40;;;17.00;65.40;;;;;;5071772;28;20453;-81
2023/02/19 02:50:38;;;;;;;2.00;1.40;;;17.00;65.30;;;;;;5077990;28;20453;-82
2023/02/19 02:55:54;;;;;;;1.50;1.40;;;17.00;65.40;;;;;;5071389;28;20453;-82
2023/02/19 02:58:23;;;;;;;1.00;0.90;;;17.00;65.40;;;;;;5071812;28;20568;-81
2023/02/19 03:03:43;;;;;;;1.73;1.50;;;16.90;65.50;;;;;;5055412;28;20453;-82
2023/02/19 03:06:12;;;;;;;2.60;1.40;;;16.90;65.40;;;;;;5073210;28;20454;-82
2023/02/19 03:08:41;;;;;;;8.23;1.60;;;16.90;65.40;;;;;;5075406;28;20529;-82
2023/02/19 03:19:35;;;;;;;1.20;1.20;;;16.80;65.60;;;;;;5061475;28;20466;-81
2023/02/19 03:22:08;;;;;;;2.70;1.20;;;16.90;65.70;;;;;;5073736;28;20446;-81
2023/02/19 03:27:26;;;;;;;4.67;1.37;;;16.80;65.50;;;;;;5073378;28;20480;-82
2023/02/19 03:29:54;;;;;;;3.10;1.43;;;16.80;65.50;;;;;;5074520;28;20530;-81
2023/02/19 03:32:27;;;;;;;1.33;1.23;;;16.80;65.50;;;;;;5078260;28;20470;-82
2023/02/19 03:34:56;;;;;;;4.67;1.50;;;16.80;65.60;;;;;;5076900;28;20451;-82
2023/02/19 03:37:27;;;;;;;1.37;1.27;;;16.80;65.60;;;;;;5071018;28;20470;-82
2023/02/19 03:39:55;;;;;;;4.00;1.30;;;16.80;65.60;;;;;;5074990;28;20461;-82
2023/02/19 03:42:30;;;;;;;1.40;1.30;;;16.80;65.50;;;;;;5075254;28;20481;-81
2023/02/19 03:45:07;;;;;;;1.50;1.40;;;16.80;65.60;;;;;;5078320;28;20532;-82
2023/02/19 03:47:41;;;;;;;1.43;1.33;;;16.80;65.60;;;;;;5079665;28;20529;-81
2023/02/19 03:50:11;;;;;;;1.30;1.23;;;16.80;65.60;;;;;;5071029;28;20477;-81
2023/02/19 03:52:41;;;;;;;1.30;1.20;;;16.80;65.70;;;;;;5071615;28;20534;-81
2023/02/19 03:58:12;;;;;;;1.47;1.27;;;16.80;65.50;;;;;;5077295;28;20540;-81
2023/02/19 04:00:42;;;;;;;1.30;1.20;;;16.80;65.50;;;;;;5075930;28;20453;-80
2023/02/19 04:03:16;;;;;;;1.27;1.10;;;16.80;65.60;;;;;;5078416;28;20470;-81
2023/02/19 04:05:45;;;;;;;1.90;1.33;;;16.80;65.60;;;;;;5075886;28;20446;-81
2023/02/19 04:08:16;;;;;;;4.20;1.33;;;16.80;65.60;;;;;;5075677;28;20509;-81
2023/02/19 04:10:44;;;;;;;1.40;1.30;;;16.80;65.60;;;;;;5075275;28;20466;-82
2023/02/19 04:13:15;;;;;;;1.10;1.10;;;16.80;65.70;;;;;;5076832;28;21210;-82
2023/02/19 04:15:43;;;;;;;1.23;1.13;;;16.70;65.60;;;;;;5073014;28;20468;-81
2023/02/19 04:18:14;;;;;;;1.20;1.10;;;16.70;65.50;;;;;;5076367;28;20497;-81
2023/02/19 04:20:43;;;;;;;1.30;1.20;;;16.70;65.40;;;;;;5074202;28;20648;-81
2023/02/19 04:23:11;;;;;;;1.60;1.50;;;16.70;65.60;;;;;;5075047;28;20476;-82
2023/02/19 04:25:40;;;;;;;2.20;1.10;;;16.70;65.60;;;;;;5073160;28;20480;-81
2023/02/19 04:28:08;;;;;;;1.27;1.17;;;16.70;65.50;;;;;;5072594;28;20446;-81
2023/02/19 04:30:36;;;;;;;1.23;1.13;;;16.70;65.50;;;;;;5076944;28;20450;-81
2023/02/19 04:33:05;;;;;;;1.30;1.20;;;16.60;65.50;;;;;;5074635;28;20474;-82
2023/02/19 04:35:34;;;;;;;7.20;1.47;;;16.70;65.50;;;;;;5074708;28;20449;-81
2023/02/19 04:38:02;;;;;;;1.97;1.43;;;16.70;65.50;;;;;;5073805;28;20470;-82
2023/02/19 04:40:30;;;;;;;1.73;1.30;;;16.70;65.60;;;;;;5070929;28;20453;-83
2023/02/19 04:42:58;;;;;;;2.43;1.30;;;16.70;65.50;;;;;;5074580;28;20481;-82
2023/02/19 04:45:27;;;;;;;2.90;1.10;;;16.70;65.60;;;;;;5070367;28;20486;-82
2023/02/19 04:47:55;;;;;;;1.37;1.37;;;16.70;65.60;;;;;;5075375;28;20533;-82
2023/02/19 04:50:23;;;;;;;2.30;1.27;;;16.60;65.50;;;;;;5065969;28;20452;-82
2023/02/19 04:52:53;;;;;;;1.23;1.13;;;16.60;65.50;;;;;;5074025;28;20469;-82
2023/02/19 04:55:21;;;;;;;1.40;1.30;;;16.60;65.60;;;;;;5074394;28;20473;-82
2023/02/19 04:57:49;;;;;;;1.17;1.00;;;16.60;65.60;;;;;;5071355;28;20452;-82
2023/02/19 05:00:17;;;;;;;1.27;1.17;;;16.60;65.60;;;;;;5074923;28;20460;-81
2023/02/19 05:02:45;;;;;;;1.30;1.13;;;16.60;65.70;;;;;;5070552;28;20477;-82
2023/02/19 05:05:13;;;;;;;2.53;1.37;;;16.60;65.60;;;;;;5072290;28;20460;-81
2023/02/19 05:07:41;;;;;;;1.17;1.10;;;16.60;65.60;;;;;;5073359;28;20454;-82
2023/02/19 05:10:10;;;;;;;1.47;1.37;;;16.60;65.50;;;;;;5075898;28;20453;-81
2023/02/19 05:12:39;;;;;;;1.57;1.20;;;16.60;65.50;;;;;;5071592;28;20819;-82
2023/02/19 05:15:07;;;;;;;2.60;0.93;;;16.60;65.60;;;;;;5071621;28;20460;-82
2023/02/19 05:17:35;;;;;;;1.43;1.20;;;16.60;65.70;;;;;;5075240;28;20509;-82
2023/02/19 05:20:03;;;;;;;1.10;1.10;;;16.60;65.60;;;;;;5072520;28;20480;-82
2023/02/19 05:22:32;;;;;;;1.73;1.20;;;16.60;65.70;;;;;;5073404;28;20465;-82
2023/02/19 05:25:00;;;;;;;1.00;1.00;;;16.50;65.50;;;;;;5069715;28;20477;-81
2023/02/19 05:27:30;;;;;;;3.63;1.00;;;16.60;65.50;;;;;;5067433;28;20475;-82
2023/02/19 05:29:58;;;;;;;1.47;1.10;;;16.50;65.50;;;;;;5066653;28;20453;-81
2023/02/19 05:32:26;;;;;;;2.03;1.13;;;16.50;65.60;;;;;;5081323;28;20480;-84
2023/02/19 05:34:58;;;;;;;1.03;1.03;;;16.50;65.50;;;;;;5071894;28;20446;-81
2023/02/19 05:37:26;;;;;;;1.27;1.17;;;16.50;65.60;;;;;;5060364;28;20478;-82
2023/02/19 05:39:55;;;;;;;1.30;1.20;;;16.50;65.40;;;;;;5054758;28;20466;-81
2023/02/19 05:42:23;;;;;;;2.00;1.00;;;16.50;65.60;;;;;;5062137;28;20575;-81
2023/02/19 05:44:52;;;;;;;1.03;1.03;;;16.50;65.60;;;;;;5070702;28;20457;-81
2023/02/19 05:47:20;;;;;;;2.73;1.00;;;16.50;65.60;;;;;;5063862;28;20521;-81
2023/02/19 05:49:48;;;;;;;1.30;1.20;;;16.50;65.50;;;;;;5063188;28;20476;-82
2023/02/19 05:52:16;;;;;;;1.00;1.00;;;16.50;65.30;;;;;;5068547;28;20449;-81
2023/02/19 05:54:44;;;;;;;2.23;1.20;;;16.50;65.30;;;;;;5076128;28;20441;-81
2023/02/19 05:57:12;;;;;;;1.23;1.13;;;16.40;65.30;;;;;;5069342;28;20466;-82
2023/02/19 05:59:41;;;;;;;1.50;1.40;;;16.40;65.30;;;;;;5067472;28;20504;-82
2023/02/19 06:02:10;;;;;;;1.13;1.03;;;16.40;65.30;;;;;;5067973;28;20449;-82
2023/02/19 06:04:38;;;;;;;1.30;1.20;;;16.40;65.30;;;;;;5070887;28;20454;-82
2023/02/19 06:07:06;;;;;;;1.00;1.00;;;16.40;65.30;;;;;;5071592;28;20458;-82
2023/02/19 06:09:34;;;;;;;1.13;1.03;;;16.40;65.20;;;;;;5071564;28;20456;-81
2023/02/19 06:12:04;;;;;;;4.77;1.07;;;16.40;65.50;;;;;;5073429;28;20480;-82
2023/02/19 06:14:32;;;;;;;1.30;1.20;;;16.40;65.20;;;;;;5063957;28;20456;-82
2023/02/19 06:17:00;;;;;;;1.20;1.10;;;16.40;65.30;;;;;;5073426;28;20457;-81
2023/02/19 06:19:30;;;;;;;1.20;1.10;;;16.40;65.20;;;;;;5066752;28;20467;-82
2023/02/19 06:21:58;;;;;;;2.30;1.03;;;16.40;65.40;;;;;;5075068;28;20464;-81
2023/02/19 06:24:26;;;;;;;1.00;1.00;;;16.30;65.30;;;;;;5073905;28;20516;-82
2023/02/19 06:26:55;;;;;;;1.00;1.00;;;16.40;65.30;;;;;;5067883;28;20481;-82
2023/02/19 06:29:23;;;;;;;1.30;1.20;;;16.40;65.40;;;;;;5071139;28;20449;-80
2023/02/19 06:31:51;;;;;;;0.83;0.83;;;16.40;65.40;;;;;;5071447;28;20453;-82
2023/02/19 06:34:19;;;;;;;0.93;0.87;;;16.40;65.30;;;;;;5067042;28;20477;-82
2023/02/19 06:36:50;;;;;;;1.50;1.40;;;16.30;65.10;;;;;;5075959;28;20536;-82
2023/02/19 06:39:18;;;;;;;1.60;1.20;;;16.40;65.30;;;;;;5076900;28;20467;-82
2023/02/19 06:41:46;;;;;;;1.20;1.10;;;16.40;65.20;;;;;;5072879;28;20481;-81
2023/02/19 06:44:14;;;;;;;1.13;1.00;;;16.30;65.20;;;;;;5082391;28;21053;-82
2023/02/19 06:46:44;;;;;;;0.90;0.90;;;16.30;65.20;;;;;;5078969;28;20460;-82
2023/02/19 06:49:14;;;;;;;1.27;1.23;;;16.40;65.10;;;;;;5080326;28;20475;-83
2023/02/19 06:51:42;;;;;;;1.20;1.10;;;16.40;65.30;;;;;;5074609;28;20502;-82
2023/02/19 06:54:11;;;;;;;1.40;1.30;;;16.30;65.50;;;;;;5081310;28;20474;-82
2023/02/19 06:56:40;;;;;;;1.17;1.10;;;16.40;65.40;;;;;;5076880;28;20556;-82
2023/02/19 06:59:09;;;;;;;1.10;1.00;;;16.40;65.20;;;;;;5080058;28;20500;-83
2023/02/19 07:01:39;;;;;;;1.17;1.00;;;16.30;65.20;;;;;;5076736;28;20513;-83
2023/02/19 07:04:07;;;;;;;1.63;1.53;;;16.30;65.30;;;;;;5075197;28;20484;-83
2023/02/19 07:06:35;;;;;;;2.20;2.03;;;16.30;65.30;;;;;;5083125;28;20522;-83
2023/02/19 07:09:03;;;;;;;3.20;1.77;;;16.30;65.20;;;;;;5075016;28;20451;-82
2023/02/19 07:11:34;;;;;;;2.47;2.27;;;16.40;65.30;;;;;;5074767;28;20486;-82
2023/02/19 07:14:03;;;;;;;2.87;2.67;;;16.40;65.30;;;;;;5080256;28;20537;-84
2023/02/19 07:16:31;;;;;;;3.43;3.03;;;16.40;65.10;;;;;;5079715;28;20480;-85
2023/02/19 07:19:00;;;;;;;3.30;3.00;;;16.40;65.20;;;;;;5080538;28;20453;-83
2023/02/19 07:21:28;;;;;;;3.13;2.73;;;16.40;65.20;;;;;;5076626;28;20465;-83
2023/02/19 07:23:57;;;;;;;3.67;3.30;;;16.40;65.10;;;;;;5072036;28;20505;-82
2023/02/19 07:26:25;;;;;;;4.03;3.43;;;16.40;64.90;;;;;;5077368;28;20470;-82
2023/02/19 07:28:54;;;;;;;4.03;3.63;;;16.40;65.10;;;;;;5081283;28;20468;-82
2023/02/19 07:31:23;;;;;;;8.13;3.80;;;16.40;65.20;;;;;;5076853;28;20537;-82
2023/02/19 07:33:51;;;;;;;4.37;3.97;;;16.40;65.20;;;;;;5081332;28;20469;-82
2023/02/19 07:36:20;;;;;;;5.03;4.20;;;16.40;65.20;;;;;;5068190;28;20458;-82
2023/02/19 07:38:51;;;;;;;4.57;3.93;;;16.40;65.20;;;;;;5079824;28;20450;-83
2023/02/19 07:41:19;;;;;;;4.20;3.80;;;16.40;65.10;;;;;;5072402;28;20481;-82
2023/02/19 07:43:47;;;;;;;4.83;4.23;;;16.50;65.30;;;;;;5073888;28;20470;-82
2023/02/19 07:46:16;;;;;;;5.20;4.00;;;16.50;65.20;;;;;;5072209;28;20476;-82
2023/02/19 07:48:44;;;;;;;4.13;3.70;;;16.50;65.20;;;;;;5070961;28;20518;-82
2023/02/19 07:51:15;;;;;;;5.90;4.30;;;16.60;65.30;;;;;;5077643;28;20449;-82
2023/02/19 07:53:43;;;;;;;5.90;4.40;;;16.60;65.00;;;;;;5073965;28;20505;-83
2023/02/19 07:56:11;;;;;;;5.30;4.30;;;16.60;65.10;;;;;;5074444;28;20504;-82
2023/02/19 07:58:40;;;;;;;4.00;3.60;;;16.70;65.10;;;;;;5078157;28;20478;-83
2023/02/19 08:01:09;;;;;;;6.13;4.70;;;16.60;65.00;;;;;;5076940;28;20475;-84
2023/02/19 08:03:38;;;;;;;4.63;4.20;;;16.70;65.10;;;;;;5081465;28;20867;-82
2023/02/19 08:06:06;;;;;;;4.63;4.03;;;16.70;65.10;;;;;;5076858;28;20459;-83
2023/02/19 08:08:34;;;;;;;4.40;4.00;;;16.80;65.20;;;;;;5082006;28;20512;-82
2023/02/19 08:13:50;;;;;;;4.67;4.23;;;16.90;64.90;;;;;;5073913;28;20465;-81
2023/02/19 08:16:18;;;;;;;5.63;4.40;;;16.90;64.90;;;;;;5075815;28;20450;-80
2023/02/19 08:19:01;;;;;;;6.20;4.40;;;17.00;65.10;;;;;;5071779;28;20518;-81
2023/02/19 08:21:29;;;;;;;4.30;3.77;;;17.10;65.10;;;;;;5077630;28;20472;-82
2023/02/19 08:24:01;;;;;;;4.80;4.27;;;17.10;64.90;;;;;;5077037;28;20473;-82
2023/02/19 08:26:29;;;;;;;5.13;4.10;;;17.20;64.90;;;;;;5077648;28;20503;-82
2023/02/19 08:28:57;;;;;;;4.57;4.03;;;17.20;64.80;;;;;;5076750;28;20457;-81
2023/02/19 08:31:26;;;;;;;4.60;3.90;;;17.30;64.80;;;;;;5072941;28;20457;-82
2023/02/19 08:33:54;;;;;;;4.97;4.13;;;17.30;64.90;;;;;;5074600;28;20548;-83
2023/02/19 08:36:24;;;;;;;5.07;4.53;;;17.30;64.80;;;;;;5070666;28;20447;-82
2023/02/19 08:38:52;;;;;;;6.23;4.10;;;17.30;64.90;;;;;;5081285;28;20460;-84
2023/02/19 08:41:21;;;;;;;4.27;3.60;;;17.40;65.30;;;;;;5076519;28;21016;-82
2023/02/19 08:43:49;;;;;;;4.53;4.00;;;17.50;65.40;;;;;;5071218;28;20480;-80
2023/02/19 08:46:18;;;;;;;4.53;4.07;;;17.60;65.60;;;;;;5067153;28;20447;-81
2023/02/19 08:48:46;;;;;;;4.57;3.93;;;17.60;65.80;;;;;;5070479;28;20504;-81
2023/02/19 08:51:14;;;;;;;4.37;3.70;;;17.70;66.10;;;;;;5071302;28;20462;-81
2023/02/19 08:53:44;;;;;;;4.50;3.47;;;17.80;66.10;;;;;;5078305;28;20537;-81
2023/02/19 08:56:13;;;;;;;4.10;3.67;;;18.00;66.60;;;;;;5075144;28;20476;-82
2023/02/19 08:58:42;;;;;;;4.07;3.70;;;18.20;66.70;;;;;;5073923;28;20493;-81
2023/02/19 09:01:10;;;;;;;3.57;3.23;;;18.30;67.00;;;;;;5072519;28;20497;-83
2023/02/19 09:03:39;;;;;;;3.83;3.53;;;18.40;67.00;;;;;;5074651;28;20491;-82
2023/02/19 09:06:07;;;;;;;6.50;3.90;;;18.50;66.90;;;;;;5075840;28;20525;-80
2023/02/19 09:08:36;;;;;;;4.00;3.60;;;18.80;67.50;;;;;;5075706;28;20445;-81
2023/02/19 09:11:06;;;;;;;4.07;3.67;;;18.90;67.10;;;;;;5070050;28;20465;-82
2023/02/19 09:13:35;;;;;;;4.13;3.60;;;19.10;67.30;;;;;;5076093;28;20500;-81
2023/02/19 09:16:03;;;;;;;4.70;4.20;;;19.30;67.30;;;;;;5076645;28;20445;-82
2023/02/19 09:18:32;;;;;;;5.00;4.17;;;19.40;66.90;;;;;;5072883;28;20964;-81
2023/02/19 09:21:01;;;;;;;4.37;3.97;;;19.50;66.70;;;;;;5076982;28;20573;-82
2023/02/19 09:23:29;;;;;;;4.20;3.80;;;19.70;66.80;;;;;;5078763;28;20471;-82
2023/02/19 09:26:02;;;;;;;4.20;3.80;;;19.90;66.90;;;;;;5081309;28;20454;-83
2023/02/19 09:28:31;;;;;;;4.13;3.83;;;20.10;66.70;;;;;;5082504;28;20561;-82
2023/02/19 09:31:03;;;;;;;4.13;3.73;;;20.30;66.90;;;;;;5081575;28;20457;-82
2023/02/19 09:33:32;;;;;;;4.70;3.93;;;20.50;66.60;;;;;;5079131;28;20469;-82
2023/02/19 09:36:00;;;;;;;4.23;3.77;;;20.70;66.50;;;;;;5076301;28;20470;-82
2023/02/19 09:38:29;;;;;;;4.37;3.97;;;20.90;66.60;;;;;;5078464;28;20533;-82
2023/02/19 09:40:58;;;;;;;3.87;3.57;;;21.00;65.80;;;;;;5078671;28;20473;-82
2023/02/19 09:43:27;;;;;;;3.60;3.30;;;21.20;65.60;;;;;;5076491;28;20506;-82
2023/02/19 09:46:01;;;;;;;4.10;3.40;;;21.20;65.20;;;;;;5079070;28;20942;-82
2023/02/19 09:48:29;;;;;;;3.47;3.17;;;21.20;65.30;;;;;;5077646;28;20838;-82
2023/02/19 09:50:58;;;;;;;3.13;2.90;;;21.20;65.10;;;;;;5068949;28;20447;-83
2023/02/19 09:53:27;;;;;;;3.23;2.90;;;21.40;65.60;;;;;;5081211;28;20473;-83
2023/02/19 09:55:55;;;;;;;3.33;2.93;;;21.60;65.80;;;;;;5080250;28;20911;-82
2023/02/19 09:58:26;;;;;;;2.50;2.40;;;21.80;65.70;;;;;;5083066;28;20970;-83
2023/02/19 10:00:54;;;;;;;3.00;2.80;;;22.00;65.90;;;;;;5077280;28;20489;-83
2023/02/19 10:03:29;;;;;;;3.23;2.93;;;22.20;65.20;;;;;;5083089;28;20473;-83
2023/02/19 10:05:58;;;;;;;3.03;2.80;;;22.30;65.10;;;;;;5073369;28;20454;-83
2023/02/19 10:08:26;;;;;;;2.80;2.70;;;22.30;64.70;;;;;;5076760;28;20473;-82
2023/02/19 10:10:55;;;;;;;2.93;2.73;;;22.30;64.30;;;;;;5082135;28;20544;-83
2023/02/19 10:13:24;;;;;;;2.97;2.77;;;22.40;64.40;;;;;;5080026;28;20584;-83
2023/02/19 10:15:53;;;;;;;2.77;2.67;;;22.40;64.20;;;;;;5079574;28;20530;-84
2023/02/19 10:18:24;;;;;;;2.63;2.50;;;22.50;64.30;;;;;;5077788;28;20446;-82
2023/02/19 10:21:03;;;;;;;2.93;2.63;;;22.60;64.10;;;;;;5076717;28;20496;-82
2023/02/19 10:23:35;;;;;;;2.87;2.67;;;22.70;64.30;;;;;;5083129;28;20480;-84
2023/02/19 10:26:05;;;;;;;3.37;2.77;;;22.90;64.70;;;;;;5079962;28;20469;-82
2023/02/19 10:28:34;;;;;;;2.60;2.43;;;23.10;64.20;;;;;;5077019;28;20482;-83
2023/02/19 10:31:03;;;;;;;3.00;2.60;;;23.10;63.70;;;;;;5080815;28;20454;-83
2023/02/19 10:33:40;;;;;;;2.60;2.40;;;23.10;63.20;;;;;;5078762;28;20483;-82
2023/02/19 10:36:17;;;;;;;2.80;2.37;;;23.10;63.70;;;;;;5079157;28;20532;-81
2023/02/19 10:38:46;;;;;;;2.07;1.97;;;23.10;63.20;;;;;;5078880;28;20450;-82
2023/02/19 10:41:20;;;;;;;2.43;2.23;;;23.20;63.40;;;;;;5077527;28;20535;-80
2023/02/19 10:43:51;;;;;;;2.30;2.17;;;23.30;62.90;;;;;;5082698;28;20466;-81
2023/02/19 10:46:21;;;;;;;2.37;2.17;;;23.20;62.40;;;;;;5079137;28;20477;-81
2023/02/19 10:48:55;;;;;;;2.23;2.03;;;23.20;62.50;;;;;;5076982;28;20481;-81
2023/02/19 10:51:41;;;;;;;2.33;2.20;;;23.10;62.20;;;;;;5079344;28;20445;-82
2023/02/19 10:54:16;;;;;;;2.47;2.20;;;23.00;62.50;;;;;;5078402;28;20474;-82
2023/02/19 10:56:47;;;;;;;2.43;2.30;;;23.00;62.70;;;;;;5077062;28;20475;-81
2023/02/19 10:59:26;;;;;;;2.17;2.03;;;23.10;63.10;;;;;;5077291;28;20456;-80
2023/02/19 11:01:56;;;;;;;2.50;2.30;;;23.30;63.40;;;;;;5076234;28;20469;-81
2023/02/19 11:04:26;;;;;;;2.43;2.23;;;23.60;63.50;;;;;;5078400;28;20473;-83
2023/02/19 11:06:56;;;;;;;3.13;2.27;;;23.90;62.80;;;;;;5075752;28;20480;-83
2023/02/19 11:09:33;;;;;;;2.00;1.77;;;24.00;62.10;;;;;;5078560;28;20490;-81
2023/02/19 11:12:08;;;;;;;4.40;2.17;;;24.00;61.70;;;;;;5077302;28;20504;-81
2023/02/19 11:14:36;;;;;;;7.43;2.40;;;24.00;61.50;;;;;;5076287;28;20515;-80
2023/02/19 11:17:05;;;;;;;2.43;2.23;;;24.10;61.70;;;;;;5078901;28;20446;-81
2023/02/19 11:19:39;;;;;;;2.77;2.00;;;24.30;62.00;;;;;;5075899;28;20492;-81
2023/02/19 11:22:22;;;;;;;2.27;2.10;;;24.60;62.10;;;;;;5076319;28;20466;-82
2023/02/19 11:24:52;;;;;;;2.70;2.50;;;25.00;61.90;;;;;;5081747;28;20444;-80
2023/02/19 11:27:25;;;;;;;2.47;2.37;;;25.50;61.30;;;;;;5073455;28;20445;-82
2023/02/19 11:29:53;;;;;;;2.33;2.23;;;26.10;60.70;;;;;;5081606;28;20523;-83
2023/02/19 11:32:26;;;;;;;2.50;2.40;;;26.70;59.30;;;;;;5076501;28;20505;-82
2023/02/19 11:35:16;;;;;;;2.57;2.37;;;27.40;58.10;;;;;;5081310;28;20440;-82
2023/02/19 11:37:57;;;;;;;1.70;1.60;;;28.10;56.50;;;;;;5079827;28;20425;-82
2023/02/19 11:40:35;;;;;;;2.70;2.30;;;28.90;54.90;;;;;;5076677;28;20436;-82
2023/02/19 11:43:07;;;;;;;2.03;1.80;;;29.50;52.70;;;;;;5074782;28;20472;-81
2023/02/19 11:45:37;;;;;;;2.10;1.93;;;29.20;51.70;;;;;;5077612;28;20548;-81
2023/02/19 11:48:32;;;;;;;2.67;2.13;;;29.80;53.00;;;;;;5071983;28;20476;-82
2023/02/19 11:51:18;;;;;;;2.30;2.10;;;30.50;50.90;;;;;;5068092;28;20489;-81
2023/02/19 11:53:47;;;;;;;2.30;1.90;;;30.70;48.90;;;;;;5066967;28;20461;-81
2023/02/19 11:56:18;;;;;;;1.97;1.87;;;30.20;48.80;;;;;;5066973;28;20466;-82
2023/02/19 11:58:57;;;;;;;1.90;1.80;;;29.70;49.40;;;;;;5068970;28;20449;-83
2023/02/19 12:02:13;;;;;;;1.87;1.70;;;29.10;49.50;;;;;;5076622;28;20519;-82
2023/02/19 12:05:21;;;;;;;2.43;1.77;;;28.40;50.80;;;;;;5063733;28;20461;-81
2023/02/19 12:08:09;;;;;;;1.53;1.40;;;28.50;52.60;;;;;;5060868;28;20428;-83
2023/02/19 12:10:43;;;;;;;1.43;1.33;;;29.80;51.60;;;;;;5070348;28;20454;-82
2023/02/19 12:13:13;;;;;;;1.70;1.60;;;31.00;49.50;;;;;;5075215;28;20480;-83
2023/02/19 12:15:48;;;;;;;1.63;1.53;;;32.20;47.50;;;;;;5071354;28;20455;-82
2023/02/19 12:18:49;;;;;;;1.63;1.53;;;32.90;46.00;;;;;;5075850;28;20965;-82
2023/02/19 12:21:26;;;;;;;1.60;1.40;;;33.70;44.10;;;;;;5065401;28;20521;-80
2023/02/19 12:24:18;;;;;;;1.80;1.70;;;34.30;42.20;;;;;;5071685;28;20469;-79
2023/02/19 12:26:50;;;;;;;2.63;2.13;;;33.60;41.40;;;;;;5070733;28;20480;-83
2023/02/19 12:29:30;;;;;;;2.20;2.00;;;33.50;43.70;;;;;;5074212;28;20493;-81
2023/02/19 12:32:14;;;;;;;2.17;2.07;;;34.30;42.30;;;;;;5067139;28;20472;-81
2023/02/19 12:35:11;;;;;;;1.83;1.83;;;35.10;40.80;;;;;;5079977;28;20502;-84
2023/02/19 12:38:33;;;;;;;2.20;2.10;;;35.60;38.70;;;;;;5057009;28;20495;-81
2023/02/19 12:45:37;;;;;;;1.97;1.70;;;37.00;37.30;;;;;;5006385;23;20492;-82
2023/02/19 12:48:17;;;;;;;1.70;1.70;;;37.60;36.40;;;;;;4994335;28;20461;-84
2023/02/19 12:51:25;;;;;;;3.63;1.60;;;38.10;35.70;;;;;;5000953;28;20443;-84
2023/02/19 13:01:19;;;;;;;1.73;1.63;;;38.50;34.60;;;;;;4786135;29;20459;-83
2023/02/19 13:03:57;;;;;;;1.87;1.87;;;38.50;34.60;;;;;;4920705;29;20454;-82
2023/02/19 13:07:04;;;;;;;1.87;1.83;;;38.20;34.50;;;;;;4892757;29;20654;-84
2023/02/19 13:10:05;;;;;;;1.60;1.60;;;38.00;35.10;;;;;;4913654;29;20544;-85
2023/02/19 13:12:43;;;;;;;1.73;1.73;;;37.60;34.90;;;;;;4994145;28;20484;-83
2023/02/19 13:15:17;;;;;;;2.17;1.97;;;36.40;35.70;;;;;;4987149;28;20548;-84
2023/02/19 13:18:25;;;;;;;2.10;2.00;;;35.00;37.10;;;;;;4995702;28;20465;-81
2023/02/19 13:20:55;;;;;;;2.57;2.37;;;33.80;39.20;;;;;;4993499;28;20454;-81
2023/02/19 13:26:36;;;;;;;2.37;2.17;;;32.00;41.60;;;;;;4994083;28;20469;-81
2023/02/19 13:29:58;;;;;;;2.50;2.40;;;31.20;43.00;;;;;;4990988;28;20451;-82
2023/02/19 13:33:07;;;;;;;3.30;3.00;;;30.50;43.90;;;;;;4992450;28;20478;-81
2023/02/19 13:36:18;;;;;;;2.50;2.30;;;29.80;44.90;;;;;;4935073;28;20563;-80
2023/02/19 13:38:51;;;;;;;2.70;2.57;;;29.20;45.90;;;;;;4992879;28;20541;-81
2023/02/19 13:44:20;;;;;;;4.40;2.70;;;28.40;46.80;;;;;;4988870;28;20452;-82
2023/02/19 13:50:39;;;;;;;3.87;2.70;;;27.70;47.90;;;;;;4988373;28;20447;-84
2023/02/19 13:53:44;;;;;;;3.07;2.53;;;27.40;48.30;;;;;;4997848;28;20473;-81
2023/02/19 13:56:42;;;;;;;6.13;2.70;;;27.20;48.70;;;;;;4993046;28;20452;-82
2023/02/19 13:59:48;;;;;;;2.67;2.53;;;27.10;49.00;;;;;;4994374;28;20458;-82
2023/02/19 14:02:37;;;;;;;2.73;2.13;;;27.00;49.10;;;;;;4962265;28;20437;-78